createdAt,value
2022-08-25T00:02:02.027Z,96.20
2022-08-25T00:04:30.517Z,96.30
2022-08-25T00:07:02.785Z,96.30
2022-08-25T00:09:31.607Z,96.30
2022-08-25T00:11:59.449Z,96.40
2022-08-25T00:14:30.821Z,96.30
2022-08-25T00:16:58.873Z,96.30
2022-08-25T00:19:29.778Z,96.40
2022-08-25T00:21:56.666Z,96.40
2022-08-25T00:24:24.427Z,96.30
2022-08-25T00:26:54.970Z,96.50
2022-08-25T00:29:23.216Z,96.50
2022-08-25T00:31:49.973Z,96.60
2022-08-25T00:34:22.159Z,96.60
2022-08-25T00:36:51.658Z,96.70
2022-08-25T00:39:21.071Z,96.80
2022-08-25T00:41:50.318Z,96.80
2022-08-25T00:44:18.767Z,97.00
2022-08-25T00:46:58.213Z,97.00
2022-08-25T00:49:33.762Z,97.10
2022-08-25T00:52:08.558Z,97.20
2022-08-25T00:54:45.670Z,97.10
2022-08-25T00:57:14.880Z,97.10
2022-08-25T00:59:43.391Z,97.20
2022-08-25T01:02:13.975Z,97.30
2022-08-25T01:04:47.212Z,97.30
2022-08-25T01:07:18.627Z,97.40
2022-08-25T01:09:47.693Z,97.40
2022-08-25T01:12:14.715Z,97.40
2022-08-25T01:14:42.283Z,97.40
2022-08-25T01:17:09.562Z,97.50
2022-08-25T01:19:36.341Z,97.70
2022-08-25T01:22:03.767Z,97.80
2022-08-25T01:24:44.931Z,97.80
2022-08-25T01:27:11.999Z,97.80
2022-08-25T01:29:39.165Z,97.80
2022-08-25T01:32:10.239Z,97.90
2022-08-25T01:34:41.201Z,97.90
2022-08-25T01:37:12.059Z,97.90
2022-08-25T01:39:41.793Z,97.90
2022-08-25T01:42:27.062Z,98.10
2022-08-25T01:44:54.519Z,98.10
2022-08-25T01:47:21.291Z,98.10
2022-08-25T01:49:48.645Z,98.10
2022-08-25T01:52:29.332Z,98.20
2022-08-25T01:54:56.326Z,98.10
2022-08-25T01:57:23.181Z,98.10
2022-08-25T01:59:50.229Z,98.10
2022-08-25T02:02:18.418Z,98.30
2022-08-25T02:04:45.439Z,98.30
2022-08-25T02:07:12.224Z,98.30
2022-08-25T02:09:39.523Z,98.40
2022-08-25T02:12:09.153Z,98.30
2022-08-25T02:14:36.734Z,98.40
2022-08-25T02:17:04.797Z,98.50
2022-08-25T02:19:32.103Z,98.60
2022-08-25T02:22:00.123Z,98.70
2022-08-25T02:24:26.983Z,98.70
2022-08-25T02:26:53.786Z,98.70
2022-08-25T02:29:21.079Z,98.60
2022-08-25T02:31:47.862Z,98.70
2022-08-25T02:34:15.213Z,98.70
2022-08-25T02:36:43.610Z,98.70
2022-08-25T02:39:11.688Z,98.80
2022-08-25T02:41:38.952Z,98.80
2022-08-25T02:44:07.270Z,99.10
2022-08-25T02:46:34.138Z,98.80
2022-08-25T02:49:00.919Z,98.80
2022-08-25T02:51:30.045Z,99.00
2022-08-25T02:53:58.558Z,98.90
2022-08-25T02:56:25.879Z,99.00
2022-08-25T02:58:53.051Z,99.00
2022-08-25T03:01:20.387Z,99.10
2022-08-25T03:03:50.654Z,99.10
2022-08-25T03:06:22.955Z,99.10
2022-08-25T03:08:50.195Z,99.00
2022-08-25T03:11:17.942Z,98.90
2022-08-25T03:13:44.762Z,99.00
2022-08-25T03:16:12.334Z,99.00
2022-08-25T03:18:41.657Z,99.00
2022-08-25T03:21:11.418Z,99.00
2022-08-25T03:23:38.426Z,99.00
2022-08-25T03:26:23.938Z,99.00
2022-08-25T03:28:50.708Z,99.00
2022-08-25T03:31:17.631Z,99.20
2022-08-25T03:33:44.492Z,99.50
2022-08-25T03:36:12.256Z,99.60
2022-08-25T03:38:40.965Z,99.70
2022-08-25T03:41:27.897Z,99.70
2022-08-25T03:43:56.697Z,99.90
2022-08-25T03:46:29.929Z,99.90
2022-08-25T03:48:57.183Z,99.90
2022-08-25T03:51:32.048Z,99.90
2022-08-25T03:53:59.348Z,99.80
2022-08-25T03:56:27.396Z,99.60
2022-08-25T03:58:54.953Z,99.70
2022-08-25T04:01:22.739Z,99.60
2022-08-25T04:03:49.918Z,99.80
2022-08-25T04:06:18.424Z,99.90
2022-08-25T04:08:45.542Z,99.80
2022-08-25T04:11:18.997Z,99.90
2022-08-25T04:13:46.760Z,99.90
2022-08-25T04:16:16.593Z,99.90
2022-08-25T04:18:44.472Z,99.90
2022-08-25T04:21:12.908Z,99.90
2022-08-25T04:23:42.347Z,99.90
2022-08-25T04:26:11.093Z,99.90
2022-08-25T04:28:38.812Z,99.90
2022-08-25T04:31:07.918Z,99.90
2022-08-25T04:33:35.884Z,99.90
2022-08-25T04:36:03.107Z,99.90
2022-08-25T04:38:30.768Z,99.90
2022-08-25T04:41:03.287Z,99.90
2022-08-25T04:43:31.636Z,99.90
2022-08-25T04:45:59.252Z,99.90
2022-08-25T04:48:26.452Z,99.90
2022-08-25T04:50:53.168Z,99.90
2022-08-25T04:53:22.003Z,99.90
2022-08-25T04:55:49.034Z,99.90
2022-08-25T04:58:16.989Z,99.90
2022-08-25T05:00:43.975Z,99.90
2022-08-25T05:03:10.783Z,99.90
2022-08-25T05:05:38.094Z,99.90
2022-08-25T05:08:08.048Z,99.90
2022-08-25T05:10:38.862Z,99.90
2022-08-25T05:13:18.329Z,99.90
2022-08-25T05:15:52.876Z,99.90
2022-08-25T05:18:21.535Z,99.90
2022-08-25T05:20:48.612Z,99.90
2022-08-25T05:23:15.684Z,99.90
2022-08-25T05:25:42.815Z,99.90
2022-08-25T05:28:13.866Z,99.90
2022-08-25T05:31:06.613Z,99.90
2022-08-25T05:37:50.537Z,99.90
2022-08-25T05:43:20.081Z,99.90
2022-08-25T05:52:41.901Z,99.90
2022-08-25T05:56:00.001Z,99.90
2022-08-25T06:10:27.533Z,99.90
2022-08-25T06:17:25.252Z,99.90
2022-08-25T06:27:13.267Z,99.90
2022-08-25T06:33:11.688Z,99.90
2022-08-25T06:47:04.734Z,99.90
2022-08-25T06:59:07.823Z,99.90
2022-08-25T07:10:24.629Z,99.90
2022-08-25T07:13:49.569Z,99.90
2022-08-25T07:20:31.440Z,99.90
2022-08-25T07:41:41.926Z,99.90
2022-08-25T08:14:39.650Z,99.10
2022-08-25T08:34:24.916Z,98.60
2022-08-25T08:49:33.783Z,98.20
2022-08-25T09:05:11.105Z,97.50
2022-08-25T09:08:35.353Z,97.50
2022-08-25T09:16:34.751Z,97.60
2022-08-25T09:26:41.136Z,97.10
2022-08-25T09:36:09.024Z,96.90
2022-08-25T09:47:09.427Z,96.30
2022-08-25T10:07:17.025Z,96.10
2022-08-25T10:13:23.558Z,95.80
2022-08-25T10:16:47.181Z,95.90
2022-08-25T10:32:26.339Z,94.70
2022-08-25T10:46:00.895Z,94.50
2022-08-25T10:49:19.096Z,94.40
2022-08-25T10:56:19.692Z,93.70
2022-08-25T10:59:06.187Z,93.70
2022-08-25T11:06:23.109Z,93.60
2022-08-25T11:16:48.718Z,93.60
2022-08-25T11:31:27.213Z,92.50
2022-08-25T11:33:55.542Z,91.90
2022-08-25T11:36:33.919Z,92.00
2022-08-25T11:39:04.138Z,91.60
2022-08-25T11:42:00.820Z,92.00
2022-08-25T11:44:53.175Z,91.80
2022-08-25T11:47:39.672Z,91.40
2022-08-25T11:50:35.198Z,91.60
2022-08-25T11:53:28.251Z,92.40
2022-08-25T11:56:02.810Z,91.90
2022-08-25T11:58:40.600Z,91.70
2022-08-25T12:01:45.256Z,91.00
2022-08-25T12:04:33.740Z,90.80
2022-08-25T12:07:06.905Z,91.00
2022-08-25T12:09:54.720Z,90.70
2022-08-25T12:12:56.193Z,90.90
2022-08-25T12:15:25.031Z,91.00
2022-08-25T12:18:11.919Z,91.10
2022-08-25T12:20:58.145Z,91.50
2022-08-25T12:23:32.837Z,91.20
2022-08-25T12:26:32.991Z,90.80
2022-08-25T12:29:27.523Z,90.90
2022-08-25T12:32:04.497Z,90.40
2022-08-25T12:35:11.669Z,90.40
2022-08-25T12:38:02.745Z,89.70
2022-08-25T12:40:37.456Z,89.50
2022-08-25T12:43:19.681Z,86.90
2022-08-25T12:45:49.744Z,85.90
2022-08-25T12:48:28.735Z,86.00
2022-08-25T12:51:00.973Z,85.70
2022-08-25T12:53:38.806Z,85.10
2022-08-25T12:56:25.106Z,86.50
2022-08-25T12:59:19.445Z,87.70
2022-08-25T13:02:22.077Z,88.10
2022-08-25T13:05:07.069Z,88.70
2022-08-25T13:07:53.084Z,88.30
2022-08-25T13:10:43.349Z,86.60
2022-08-25T13:13:32.580Z,85.00
2022-08-25T13:16:16.212Z,84.90
2022-08-25T13:18:42.942Z,84.70
2022-08-25T13:21:15.350Z,86.30
2022-08-25T13:23:45.798Z,85.60
2022-08-25T13:26:23.127Z,83.80
2022-08-25T13:28:57.883Z,83.90
2022-08-25T13:31:29.031Z,84.20
2022-08-25T13:34:05.379Z,84.50
2022-08-25T13:37:00.732Z,84.00
2022-08-25T13:39:45.944Z,84.70
2022-08-25T13:42:20.422Z,84.70
2022-08-25T13:44:56.421Z,85.00
2022-08-25T13:47:43.873Z,84.00
2022-08-25T13:50:27.290Z,83.30
2022-08-25T13:53:05.402Z,81.90
2022-08-25T13:55:50.422Z,81.40
2022-08-25T13:58:39.305Z,81.90
2022-08-25T14:01:22.903Z,82.90
2022-08-25T14:04:39.658Z,84.00
2022-08-25T14:07:20.870Z,83.90
2022-08-25T14:09:57.897Z,83.50
2022-08-25T14:12:33.866Z,84.00
2022-08-25T14:19:05.279Z,83.80
2022-08-25T14:21:59.209Z,83.50
2022-08-25T14:25:20.315Z,82.80
2022-08-25T14:28:25.493Z,82.90
2022-08-25T14:38:54.741Z,82.10
2022-08-25T14:41:30.312Z,80.70
2022-08-25T14:44:50.837Z,80.50
2022-08-25T14:58:50.778Z,79.20
2022-08-25T15:14:06.150Z,74.30
2022-08-25T15:17:07.231Z,74.70
2022-08-25T15:27:15.209Z,74.90
2022-08-25T15:30:47.724Z,73.80
2022-08-25T15:33:27.956Z,72.50
2022-08-25T15:44:32.646Z,72.50
2022-08-25T15:47:58.512Z,72.70
2022-08-25T15:50:58.351Z,72.30
2022-08-25T15:53:37.669Z,72.00
2022-08-25T16:00:19.500Z,72.00
2022-08-25T16:03:28.183Z,72.10
2022-08-25T16:13:52.861Z,71.90
2022-08-25T16:17:07.345Z,72.90
2022-08-25T16:19:48.788Z,72.80
2022-08-25T16:33:18.372Z,76.00
2022-08-25T16:40:38.059Z,75.70
2022-08-25T16:43:58.641Z,75.20
2022-08-25T16:57:24.798Z,74.30
2022-08-25T17:00:23.909Z,73.90
2022-08-25T17:03:25.745Z,73.90
2022-08-25T17:06:05.445Z,73.20
2022-08-25T17:09:32.117Z,74.70
2022-08-25T17:12:49.229Z,74.50
2022-08-25T17:15:27.782Z,74.80
2022-08-25T17:22:21.202Z,74.70
2022-08-25T17:25:17.942Z,75.20
2022-08-25T17:31:57.588Z,76.40
2022-08-25T17:35:37.473Z,77.30
2022-08-25T17:42:41.831Z,78.00
2022-08-25T17:45:43.150Z,78.50
2022-08-25T17:54:33.040Z,79.60
2022-08-25T17:57:32.470Z,80.20
2022-08-25T18:08:54.503Z,81.70
2022-08-25T18:12:18.210Z,82.20
2022-08-25T18:15:55.349Z,82.80
2022-08-25T18:22:04.399Z,83.30
2022-08-25T18:25:46.823Z,83.60
2022-08-25T18:32:45.303Z,84.30
2022-08-25T18:39:48.791Z,84.80
2022-08-25T18:42:48.780Z,85.40
2022-08-25T18:45:29.121Z,85.80
2022-08-25T18:52:55.095Z,86.70
2022-08-25T18:56:08.413Z,87.80
2022-08-25T19:06:20.212Z,88.10
2022-08-25T19:16:40.514Z,89.00
2022-08-25T19:24:04.918Z,89.30
2022-08-25T19:44:12.205Z,90.20
2022-08-25T19:54:44.424Z,90.70
2022-08-25T19:57:42.447Z,90.80
2022-08-25T20:01:02.393Z,90.90
2022-08-25T20:11:44.617Z,91.20
2022-08-25T20:14:21.562Z,91.40
2022-08-25T20:16:51.495Z,91.40
2022-08-25T20:26:32.168Z,91.60
2022-08-25T20:26:35.767Z,91.60
2022-08-25T20:32:33.840Z,91.90
2022-08-25T20:35:14.341Z,92.00
2022-08-25T20:41:17.263Z,92.20
2022-08-25T20:48:17.877Z,92.30
2022-08-25T20:50:44.708Z,92.40
2022-08-25T20:57:26.665Z,92.60
2022-08-25T20:59:55.447Z,92.60
2022-08-25T21:02:23.861Z,92.70
2022-08-25T21:04:51.733Z,92.90
2022-08-25T21:07:20.363Z,92.90
2022-08-25T21:09:47.566Z,92.90
2022-08-25T21:12:14.729Z,92.90
2022-08-25T21:14:42.115Z,93.00
2022-08-25T21:17:12.742Z,93.00
2022-08-25T21:19:40.194Z,93.10
2022-08-25T21:22:09.428Z,93.30
2022-08-25T21:24:38.323Z,93.30
2022-08-25T21:27:05.257Z,93.40
2022-08-25T21:29:33.044Z,93.60
2022-08-25T21:32:00.363Z,93.70
2022-08-25T21:34:29.034Z,93.70
2022-08-25T21:36:59.388Z,93.80
2022-08-25T21:39:29.509Z,93.90
2022-08-25T21:42:00.158Z,93.90
2022-08-25T21:44:27.764Z,93.90
2022-08-25T21:46:54.871Z,93.90
2022-08-25T21:49:23.279Z,93.90
2022-08-25T21:52:02.344Z,94.10
2022-08-25T21:54:31.664Z,94.20
2022-08-25T21:57:05.844Z,94.20
2022-08-25T21:59:37.600Z,94.20
2022-08-25T22:02:07.982Z,94.30
2022-08-25T22:04:37.062Z,94.30
2022-08-25T22:07:07.550Z,94.30
2022-08-25T22:09:35.359Z,94.20
2022-08-25T22:12:02.719Z,94.20
2022-08-25T22:14:29.434Z,94.40
2022-08-25T22:16:56.431Z,94.30
2022-08-25T22:19:23.536Z,94.40
2022-08-25T22:21:51.587Z,94.60
2022-08-25T22:24:19.421Z,94.60
2022-08-25T22:26:47.694Z,94.80
2022-08-25T22:29:15.853Z,94.90
2022-08-25T22:31:53.001Z,95.00
2022-08-25T22:34:19.955Z,95.00
2022-08-25T22:36:59.549Z,95.00
2022-08-25T22:39:27.739Z,95.00
2022-08-25T22:41:54.463Z,95.00
2022-08-25T22:44:23.519Z,95.10
2022-08-25T22:46:50.518Z,95.00
2022-08-25T22:49:18.003Z,95.10
2022-08-25T22:51:46.923Z,95.20
2022-08-25T22:54:15.109Z,95.10
2022-08-25T22:56:42.157Z,95.10
2022-08-25T22:59:11.418Z,95.30
2022-08-25T23:01:39.617Z,95.30
2022-08-25T23:04:07.010Z,95.40
2022-08-25T23:06:36.817Z,95.40
2022-08-25T23:09:06.155Z,95.50
2022-08-25T23:11:33.095Z,95.50
2022-08-25T23:14:00.490Z,95.50
2022-08-25T23:16:28.372Z,95.40
2022-08-25T23:18:55.264Z,95.30
2022-08-25T23:21:40.986Z,95.40
2022-08-25T23:24:10.947Z,95.60
2022-08-25T23:26:41.952Z,95.80
2022-08-25T23:29:17.851Z,95.70
2022-08-25T23:31:47.803Z,95.80
2022-08-25T23:34:16.521Z,95.90
2022-08-25T23:36:43.796Z,96.00
2022-08-25T23:39:11.303Z,96.10
2022-08-25T23:41:38.799Z,96.00
2022-08-25T23:44:06.695Z,96.20
2022-08-25T23:46:35.982Z,96.40
2022-08-25T23:49:04.783Z,96.50
2022-08-25T23:51:34.090Z,96.40
2022-08-25T23:54:05.972Z,96.40
2022-08-25T23:56:34.349Z,96.50
2022-08-25T23:59:03.463Z,96.50
